Time;durP1;ratioP1;P1;durP2;ratioP2;P2;SDS_P1;SDS_P2;PMS_P1;PMS_P2;Temp;Humidity;BMP_temperature;BMP_pressure;BME280_temperature;BME280_humidity;BME280_pressure;Samples;Min_cycle;Max_cycle;Signal;HPM_P1;HPM_P2
2022/03/28 00:02:46;;;;;;;8.27;6.00;;;;;;;11.56;42.35;99716.19;6945447;28;20276;-82
2022/03/28 00:06:09;;;;;;;7.63;5.97;;;;;;;11.54;42.10;99702.88;6944981;28;20210;-82
2022/03/28 00:09:30;;;;;;;11.20;6.77;;;;;;;11.35;42.22;99705.31;6945000;28;20287;-83
2022/03/28 00:12:52;;;;;;;11.73;6.57;;;;;;;11.16;42.46;99695.09;6944734;28;20305;-82
2022/03/28 00:16:14;;;;;;;9.33;7.23;;;;;;;11.22;43.25;99692.47;6944755;28;20243;-83
2022/03/28 00:19:35;;;;;;;10.50;6.93;;;;;;;11.22;42.77;99705.16;6945106;28;20236;-83
2022/03/28 00:22:58;;;;;;;8.53;6.40;;;;;;;11.07;43.02;99688.97;6944659;28;20252;-83
2022/03/28 00:26:20;;;;;;;9.40;6.77;;;;;;;11.05;43.52;99695.56;6944357;28;20203;-84
2022/03/28 00:29:42;;;;;;;15.60;7.77;;;;;;;11.10;43.12;99687.75;6944380;28;20308;-83
2022/03/28 00:33:04;;;;;;;12.43;6.97;;;;;;;10.83;43.66;99675.75;6944435;28;20199;-83
2022/03/28 00:36:26;;;;;;;8.43;6.37;;;;;;;10.63;44.03;99682.69;6944114;28;20305;-83
2022/03/28 00:39:49;;;;;;;15.97;8.97;;;;;;;10.44;44.40;99669.75;6945052;28;20314;-83
2022/03/28 00:43:11;;;;;;;9.73;7.00;;;;;;;10.55;44.59;99663.06;6943943;28;20686;-83
2022/03/28 00:46:32;;;;;;;14.43;7.03;;;;;;;10.53;43.84;99673.22;6935480;28;20217;-84
2022/03/28 00:49:54;;;;;;;10.07;7.13;;;;;;;10.47;44.06;99671.25;6944337;28;20234;-83
2022/03/28 00:53:16;;;;;;;10.67;6.73;;;;;;;10.39;45.05;99665.94;6943376;28;20215;-84
2022/03/28 00:56:41;;;;;;;9.40;6.90;;;;;;;10.50;44.83;99676.28;6941904;28;20242;-83
2022/03/28 01:00:06;;;;;;;11.87;7.60;;;;;;;10.40;44.89;99663.03;6944181;28;20222;-84
2022/03/28 01:03:28;;;;;;;11.13;6.67;;;;;;;10.44;44.69;99660.81;6944179;28;20189;-83
2022/03/28 01:06:50;;;;;;;11.17;7.30;;;;;;;10.25;45.35;99664.88;6943696;28;20213;-84
2022/03/28 01:10:12;;;;;;;14.27;7.23;;;;;;;10.40;44.72;99659.53;6944015;28;20227;-83
2022/03/28 01:13:35;;;;;;;11.47;7.27;;;;;;;10.48;44.46;99660.28;6943434;28;20565;-83
2022/03/28 01:20:37;;;;;;;14.60;7.73;;;;;;;10.65;43.40;99648.31;6944029;28;20221;-83
2022/03/28 01:24:00;;;;;;;9.60;7.23;;;;;;;10.18;45.03;99653.16;6943676;28;20290;-86
2022/03/28 01:27:23;;;;;;;13.10;7.53;;;;;;;9.84;45.53;99633.88;6942340;28;20222;-86
2022/03/28 01:30:45;;;;;;;13.83;7.70;;;;;;;9.90;46.35;99649.31;6942929;28;20728;-85
2022/03/28 01:34:06;;;;;;;15.20;10.80;;;;;;;10.06;45.25;99643.00;6943600;28;20207;-85
2022/03/28 01:37:28;;;;;;;9.87;7.73;;;;;;;10.27;44.71;99635.06;6944596;28;20232;-84
2022/03/28 01:40:52;;;;;;;13.83;8.40;;;;;;;9.89;45.82;99647.66;6946580;28;20580;-84
2022/03/28 01:44:14;;;;;;;11.60;7.67;;;;;;;9.70;46.26;99617.66;6945922;28;20203;-84
2022/03/28 01:47:37;;;;;;;11.10;7.50;;;;;;;9.98;46.02;99635.78;6944817;28;20712;-84
2022/03/28 01:50:59;;;;;;;14.43;6.83;;;;;;;10.15;45.32;99631.13;6945382;28;20812;-84
2022/03/28 01:54:21;;;;;;;11.07;7.13;;;;;;;9.97;45.13;99609.84;6944020;28;20664;-84
2022/03/28 01:57:45;;;;;;;12.03;7.10;;;;;;;9.73;45.46;99590.34;6945333;28;20286;-84
2022/03/28 02:01:06;;;;;;;9.90;7.03;;;;;;;9.74;46.00;99614.44;6947460;28;20214;-84
2022/03/28 02:04:28;;;;;;;13.07;7.03;;;;;;;9.61;46.03;99605.25;6949500;28;20207;-84
2022/03/28 02:07:50;;;;;;;15.00;7.10;;;;;;;9.24;47.55;99624.03;6952824;28;20226;-83
2022/03/28 02:11:11;;;;;;;15.93;7.40;;;;;;;9.76;45.99;99596.25;6952708;28;20207;-84
2022/03/28 02:14:34;;;;;;;15.23;7.83;;;;;;;10.03;45.80;99611.84;6952040;28;20345;-84
2022/03/28 02:17:56;;;;;;;15.90;7.23;;;;;;;10.10;45.38;99601.19;6950667;28;20241;-83
2022/03/28 02:21:17;;;;;;;9.20;6.80;;;;;;;10.49;44.27;99617.97;6950543;28;20334;-84
2022/03/28 02:24:39;;;;;;;14.13;7.23;;;;;;;10.37;44.71;99608.66;6951952;28;20214;-84
2022/03/28 02:28:01;;;;;;;12.50;7.80;;;;;;;10.40;44.92;99608.31;6950166;28;20223;-84
2022/03/28 02:31:24;;;;;;;10.33;7.27;;;;;;;10.34;44.58;99584.78;6951321;28;20294;-84
2022/03/28 02:34:45;;;;;;;14.77;8.33;;;;;;;10.04;45.00;99589.28;6951227;28;20284;-84
2022/03/28 02:38:07;;;;;;;11.70;7.93;;;;;;;10.51;43.85;99592.50;6951975;28;20696;-84
2022/03/28 02:41:32;;;;;;;16.17;8.37;;;;;;;10.66;43.40;99601.44;6956451;28;20618;-84
2022/03/28 02:44:57;;;;;;;10.87;7.60;;;;;;;10.59;43.26;99602.38;6958162;28;20211;-84
2022/03/28 02:48:20;;;;;;;11.27;7.23;;;;;;;10.69;42.74;99584.88;6958710;28;20224;-84
2022/03/28 02:51:43;;;;;;;14.03;8.07;;;;;;;10.46;43.09;99602.19;6961316;28;20702;-84
2022/03/28 02:55:05;;;;;;;13.03;8.07;;;;;;;10.28;43.51;99561.28;6959984;28;20212;-84
2022/03/28 02:58:27;;;;;;;12.80;8.00;;;;;;;10.80;42.41;99597.88;6962608;28;20925;-85
2022/03/28 03:01:50;;;;;;;14.27;8.03;;;;;;;10.82;42.21;99586.91;6964389;28;20209;-85
2022/03/28 03:09:58;;;;;;;15.83;8.80;;;;;;;11.07;40.81;99586.41;6944720;28;20748;-85
2022/03/28 03:13:58;;;;;;;14.80;8.77;;;;;;;11.14;40.95;99581.09;6962851;28;20218;-85
2022/03/28 03:18:21;;;;;;;15.87;8.37;;;;;;;11.12;41.05;99564.25;6962301;28;20229;-86
2022/03/28 03:22:30;;;;;;;14.70;9.13;;;;;;;10.98;41.47;99570.53;6955962;28;20204;-86
2022/03/28 03:26:35;;;;;;;15.07;8.37;;;;;;;10.77;41.26;99519.22;6960742;28;20216;-87
2022/03/28 03:34:55;;;;;;;14.47;9.03;;;;;;;11.04;40.69;99565.19;6865539;28;20209;-88
2022/03/28 03:42:27;;;;;;;12.77;7.97;;;;;;;10.88;41.34;99557.34;6878717;28;20263;-87
2022/03/28 03:45:49;;;;;;;17.37;8.80;;;;;;;11.05;40.30;99566.03;6875392;28;20666;-87
2022/03/28 03:49:11;;;;;;;12.13;7.93;;;;;;;10.79;41.04;99571.09;6874477;28;20253;-86
2022/03/28 03:52:32;;;;;;;14.57;8.63;;;;;;;11.17;40.27;99569.91;6873979;28;20208;-86
2022/03/28 03:55:59;;;;;;;16.70;8.67;;;;;;;10.95;40.34;99552.00;6872736;28;20209;-86
2022/03/28 03:59:20;;;;;;;16.07;8.47;;;;;;;10.94;40.78;99564.69;6874137;28;20321;-85
2022/03/28 04:02:42;;;;;;;10.47;7.57;;;;;;;10.97;40.78;99566.97;6876307;28;20228;-84
2022/03/28 04:06:05;;;;;;;13.63;8.53;;;;;;;10.92;40.69;99565.88;6829086;28;20207;-87
2022/03/28 04:09:27;;;;;;;16.73;8.87;;;;;;;11.05;40.37;99561.47;6824226;29;20228;-85
2022/03/28 04:13:19;;;;;;;14.40;8.73;;;;;;;10.82;40.85;99560.78;6872533;28;20223;-85
2022/03/28 04:16:49;;;;;;;20.10;9.73;;;;;;;10.93;41.18;99559.47;6913993;28;20208;-85
2022/03/28 04:20:17;;;;;;;10.87;7.90;;;;;;;11.19;40.10;99554.34;6927578;28;20252;-85
2022/03/28 04:23:38;;;;;;;13.63;8.77;;;;;;;11.23;40.18;99553.78;6932643;28;20216;-86
2022/03/28 04:27:00;;;;;;;14.37;9.47;;;;;;;11.08;40.27;99549.44;6932436;28;20204;-85
2022/03/28 04:30:24;;;;;;;17.10;9.00;;;;;;;11.27;40.45;99556.97;6933251;28;20208;-86
2022/03/28 04:33:45;;;;;;;15.63;8.60;;;;;;;11.26;40.35;99550.72;6932524;28;20212;-84
2022/03/28 04:37:07;;;;;;;15.20;9.47;;;;;;;11.10;40.33;99544.72;6930881;28;20243;-85
2022/03/28 04:40:29;;;;;;;13.47;7.90;;;;;;;11.10;40.52;99548.25;6928417;28;20584;-85
2022/03/28 04:43:50;;;;;;;14.37;8.93;;;;;;;10.56;41.27;99508.38;6926812;28;20272;-84
2022/03/28 04:47:13;;;;;;;14.80;8.63;;;;;;;10.65;40.79;99510.78;6923433;28;20199;-87
2022/03/28 04:50:35;;;;;;;14.83;8.83;;;;;;;10.79;41.35;99558.47;6926259;28;20242;-84
2022/03/28 04:53:57;;;;;;;13.13;8.83;;;;;;;10.90;41.29;99565.22;6923609;28;20318;-84
2022/03/28 04:57:18;;;;;;;20.10;10.17;;;;;;;10.97;40.85;99574.22;6947579;28;20230;-84
2022/03/28 05:00:40;;;;;;;14.00;8.80;;;;;;;10.94;41.42;99566.53;6941999;28;20219;-85
2022/03/28 05:04:41;;;;;;;19.93;10.03;;;;;;;10.86;41.39;99567.47;6940101;28;20204;-84
2022/03/28 05:08:44;;;;;;;15.63;9.40;;;;;;;10.88;40.94;99560.03;6886930;28;20273;-84
2022/03/28 05:12:07;;;;;;;14.03;9.33;;;;;;;9.89;42.79;99520.22;6927380;28;20206;-85
2022/03/28 05:15:31;;;;;;;15.37;9.50;;;;;;;10.55;42.24;99568.69;6910639;28;20593;-84
2022/03/28 05:18:53;;;;;;;15.47;9.53;;;;;;;10.30;42.45;99557.38;6893299;28;20240;-84
2022/03/28 05:22:15;;;;;;;17.97;9.63;;;;;;;10.32;42.54;99549.06;6896465;28;20274;-84
2022/03/28 05:25:38;;;;;;;13.63;9.33;;;;;;;10.47;42.28;99550.78;6920618;28;20629;-85
2022/03/28 05:29:00;;;;;;;13.13;9.30;;;;;;;10.68;41.65;99550.03;6914388;28;20734;-85
2022/03/28 05:32:22;;;;;;;15.83;9.90;;;;;;;10.68;41.94;99548.13;6915165;28;20207;-85
2022/03/28 05:35:43;;;;;;;16.57;9.27;;;;;;;10.74;41.33;99557.34;6915932;28;20199;-85
2022/03/28 05:39:05;;;;;;;20.00;9.83;;;;;;;9.94;42.76;99558.22;6915844;28;20262;-86
2022/03/28 05:42:28;;;;;;;16.83;10.13;;;;;;;9.81;43.66;99539.16;6900168;28;20208;-85
2022/03/28 05:46:19;;;;;;;15.87;9.37;;;;;;;10.00;43.13;99535.94;6895663;28;20250;-84
2022/03/28 05:49:41;;;;;;;14.47;9.20;;;;;;;10.33;42.84;99561.56;6904664;28;20267;-84
2022/03/28 05:53:05;;;;;;;13.93;9.17;;;;;;;10.22;42.88;99535.88;6926364;28;20354;-84
2022/03/28 05:56:27;;;;;;;17.00;8.80;;;;;;;10.47;42.10;99553.47;6922629;28;20207;-85
2022/03/28 05:59:51;;;;;;;17.83;10.43;;;;;;;10.76;41.15;99526.47;6917015;28;20278;-86
2022/03/28 06:03:12;;;;;;;15.90;9.73;;;;;;;10.57;41.76;99501.94;6902765;28;20255;-85
2022/03/28 06:06:35;;;;;;;15.97;10.27;;;;;;;10.36;42.27;99499.16;6924371;28;20292;-84
2022/03/28 06:09:56;;;;;;;16.13;10.50;;;;;;;10.60;42.56;99544.69;6925468;28;20235;-83
2022/03/28 06:13:18;;;;;;;17.73;9.90;;;;;;;11.35;41.56;99559.53;6913154;28;20554;-81
2022/03/28 06:16:41;;;;;;;20.27;10.87;;;;;;;11.87;40.25;99560.88;6915521;28;20231;-82
2022/03/28 06:20:04;;;;;;;15.70;9.93;;;;;;;12.70;38.49;99558.16;6914416;28;20267;-80
2022/03/28 06:23:26;;;;;;;20.67;10.73;;;;;;;13.09;38.09;99556.47;6915831;28;20227;-81
2022/03/28 06:26:48;;;;;;;15.67;9.63;;;;;;;13.12;37.80;99526.31;6915684;28;20276;-81
2022/03/28 06:30:11;;;;;;;17.37;9.77;;;;;;;13.50;37.55;99542.81;6916038;28;20338;-80
2022/03/28 06:33:35;;;;;;;15.87;9.90;;;;;;;13.75;37.13;99554.75;6915162;28;20208;-80
2022/03/28 06:36:56;;;;;;;14.97;9.87;;;;;;;14.06;36.29;99536.00;6914345;28;20296;-80
2022/03/28 06:40:18;;;;;;;18.50;10.10;;;;;;;14.37;35.54;99542.47;6915109;28;20263;-81
2022/03/28 06:43:39;;;;;;;19.50;9.33;;;;;;;13.86;36.54;99517.03;6915284;28;20214;-80
2022/03/28 06:47:01;;;;;;;20.50;10.30;;;;;;;14.16;36.72;99531.81;6910882;28;20206;-80
2022/03/28 06:50:25;;;;;;;20.13;11.17;;;;;;;14.54;34.00;99465.00;6914943;28;20215;-79
2022/03/28 06:53:48;;;;;;;22.03;10.27;;;;;;;15.47;33.53;99534.97;6919578;28;20295;-80
2022/03/28 06:57:10;;;;;;;17.97;11.30;;;;;;;15.46;32.76;99506.94;6918293;28;20679;-80
2022/03/28 07:00:31;;;;;;;15.57;9.97;;;;;;;15.81;31.89;99523.63;6918312;28;20221;-80
2022/03/28 07:03:53;;;;;;;18.83;10.50;;;;;;;15.53;32.46;99534.09;6919242;28;20211;-80
2022/03/28 07:07:16;;;;;;;17.57;10.27;;;;;;;16.17;31.46;99530.00;6918574;28;20294;-80
2022/03/28 07:10:38;;;;;;;16.23;10.50;;;;;;;15.87;31.35;99526.28;6918689;28;20203;-79
2022/03/28 07:13:59;;;;;;;18.63;10.93;;;;;;;16.38;31.32;99526.91;6921562;28;20230;-79
2022/03/28 07:17:21;;;;;;;18.67;12.57;;;;;;;16.25;32.29;99531.59;6919649;28;20279;-80
2022/03/28 07:20:43;;;;;;;18.67;10.53;;;;;;;16.95;30.78;99523.75;6919795;28;20237;-80
2022/03/28 07:24:07;;;;;;;21.10;11.47;;;;;;;17.72;29.41;99526.50;6917562;28;20286;-80
2022/03/28 07:27:28;;;;;;;16.50;10.47;;;;;;;17.60;30.19;99517.44;6918323;28;20252;-80
2022/03/28 07:30:50;;;;;;;24.07;12.27;;;;;;;17.08;30.18;99520.88;6920277;28;20277;-80
2022/03/28 07:37:51;;;;;;;16.97;10.80;;;;;;;18.08;29.48;99518.13;6919437;28;20696;-80
2022/03/28 07:41:14;;;;;;;13.80;10.10;;;;;;;18.19;28.69;99508.28;6920257;28;20549;-80
2022/03/28 07:44:35;;;;;;;16.70;10.90;;;;;;;18.22;27.98;99505.91;6919958;28;20914;-80
2022/03/28 07:47:57;;;;;;;17.07;10.10;;;;;;;18.32;28.66;99510.78;6918995;28;20367;-80
2022/03/28 07:51:19;;;;;;;17.10;11.50;;;;;;;18.16;28.42;99465.91;6918537;28;20240;-80
2022/03/28 07:54:40;;;;;;;16.67;10.97;;;;;;;18.70;27.95;99494.75;6919267;28;20204;-80
2022/03/28 07:58:03;;;;;;;19.70;10.93;;;;;;;18.79;28.15;99479.63;6916910;28;20733;-80
2022/03/28 08:01:25;;;;;;;16.27;10.73;;;;;;;19.08;27.65;99503.19;6916454;28;20294;-80
2022/03/28 08:04:47;;;;;;;16.13;11.03;;;;;;;19.36;28.12;99490.41;6919645;28;20311;-81
2022/03/28 08:08:08;;;;;;;15.40;10.93;;;;;;;19.86;26.78;99496.78;6921183;28;20353;-81
2022/03/28 08:11:31;;;;;;;20.77;11.00;;;;;;;19.97;26.17;99481.34;6937431;28;20233;-82
2022/03/28 08:14:53;;;;;;;16.93;10.80;;;;;;;20.69;26.11;99485.78;6960279;28;20248;-83
2022/03/28 08:18:16;;;;;;;17.37;11.37;;;;;;;21.18;24.45;99475.47;6948588;28;20250;-80
2022/03/28 08:21:38;;;;;;;18.40;11.47;;;;;;;21.43;24.75;99466.69;6946169;28;20206;-81
2022/03/28 08:25:00;;;;;;;17.27;11.53;;;;;;;21.80;23.84;99473.09;6944804;28;20215;-81
2022/03/28 08:28:21;;;;;;;18.07;11.47;;;;;;;21.51;23.38;99447.00;6944181;28;20259;-81
2022/03/28 08:31:44;;;;;;;19.27;11.47;;;;;;;22.20;23.18;99465.19;6945436;28;20212;-81
2022/03/28 08:35:07;;;;;;;16.60;11.57;;;;;;;21.62;23.86;99460.56;6945696;28;20206;-81
2022/03/28 08:38:28;;;;;;;17.10;11.60;;;;;;;21.73;24.24;99437.63;6944483;28;20320;-81
2022/03/28 08:41:50;;;;;;;17.73;11.80;;;;;;;22.50;23.60;99465.44;6943026;28;20210;-80
2022/03/28 08:45:14;;;;;;;15.77;11.00;;;;;;;21.19;25.70;99459.84;6942772;28;20250;-79
2022/03/28 08:48:40;;;;;;;19.67;11.67;;;;;;;21.90;24.86;99463.03;6942402;28;20255;-79
2022/03/28 08:52:02;;;;;;;15.90;10.80;;;;;;;21.68;25.51;99459.56;6943007;28;20191;-79
2022/03/28 08:55:24;;;;;;;19.13;11.63;;;;;;;21.27;25.67;99455.81;6943421;28;20209;-80
2022/03/28 08:58:45;;;;;;;19.43;11.00;;;;;;;22.16;25.25;99447.59;6942618;28;20245;-79
2022/03/28 09:02:07;;;;;;;15.70;11.13;;;;;;;22.32;24.51;99444.69;6943210;28;20245;-80
2022/03/28 09:05:31;;;;;;;17.90;11.47;;;;;;;22.40;24.39;99441.44;6926128;28;20224;-80
2022/03/28 09:08:53;;;;;;;15.53;11.37;;;;;;;22.64;24.03;99433.59;6914614;28;20320;-77
2022/03/28 09:12:14;;;;;;;16.17;11.50;;;;;;;23.04;23.47;99434.63;6914974;28;20686;-80
2022/03/28 09:15:48;;;;;;;22.10;12.20;;;;;;;22.95;23.70;99430.72;6942091;28;20303;-78
2022/03/28 09:19:10;;;;;;;24.87;13.53;;;;;;;22.94;24.08;99428.22;6941541;28;20228;-78
2022/03/28 09:22:35;;;;;;;30.90;21.57;;;;;;;22.66;24.14;99421.25;6941212;28;20205;-79
2022/03/28 09:25:58;;;;;;;181.37;90.90;;;;;;;22.71;24.14;99421.28;6886725;28;20237;-78
2022/03/28 09:29:20;;;;;;;24.27;15.13;;;;;;;23.36;23.52;99412.44;6902407;28;20706;-79
2022/03/28 09:32:44;;;;;;;24.83;15.87;;;;;;;23.53;22.80;99394.56;6914636;28;20206;-79
2022/03/28 09:36:06;;;;;;;15.37;12.10;;;;;;;24.00;21.91;99397.03;6914200;28;20200;-78
2022/03/28 09:39:32;;;;;;;19.83;12.33;;;;;;;24.10;21.77;99408.91;6913619;28;20294;-78
2022/03/28 09:42:54;;;;;;;19.80;13.70;;;;;;;23.84;21.40;99384.38;6913913;28;20188;-78
2022/03/28 09:46:25;;;;;;;18.83;13.77;;;;;;;24.22;21.78;99379.13;6913205;28;20214;-79
2022/03/28 09:49:49;;;;;;;19.63;13.30;;;;;;;24.93;20.69;99374.16;6913547;28;20233;-78
2022/03/28 09:53:15;;;;;;;18.27;13.00;;;;;;;25.37;20.12;99366.75;6916624;28;20208;-77
2022/03/28 09:56:38;;;;;;;22.47;13.70;;;;;;;25.60;20.02;99371.56;6940258;28;20310;-78
2022/03/28 10:00:09;;;;;;;24.30;14.37;;;;;;;25.45;20.63;99357.84;6941075;28;20274;-79
2022/03/28 10:03:33;;;;;;;19.60;14.03;;;;;;;25.10;19.57;99358.91;6941164;28;20648;-80
2022/03/28 10:06:56;;;;;;;17.13;13.00;;;;;;;25.55;19.86;99350.31;6941093;28;20211;-79
2022/03/28 10:10:17;;;;;;;17.97;12.40;;;;;;;25.86;19.26;99340.66;6941167;28;20210;-79
2022/03/28 10:13:41;;;;;;;17.20;13.37;;;;;;;25.82;19.54;99344.28;6941487;28;20307;-78
2022/03/28 10:17:04;;;;;;;19.50;13.10;;;;;;;25.25;20.25;99320.19;6941284;28;20294;-78
2022/03/28 10:20:26;;;;;;;24.27;13.80;;;;;;;25.14;20.43;99332.38;6941787;28;20234;-78
2022/03/28 10:23:51;;;;;;;21.60;13.87;;;;;;;24.78;19.96;99339.22;6923586;28;20210;-77
2022/03/28 10:27:13;;;;;;;18.03;13.00;;;;;;;24.54;20.91;99329.13;6920965;28;20193;-78
2022/03/28 10:30:37;;;;;;;19.83;13.20;;;;;;;25.39;19.81;99301.84;6919274;28;20861;-80
2022/03/28 10:33:58;;;;;;;18.83;13.50;;;;;;;25.84;18.82;99317.19;6919847;28;20700;-80
2022/03/28 10:37:38;;;;;;;18.47;13.23;;;;;;;25.56;18.98;99310.56;6919334;28;20234;-80
2022/03/28 10:41:01;;;;;;;18.33;12.57;;;;;;;25.31;19.07;99309.94;6920536;28;20304;-79
2022/03/28 10:44:22;;;;;;;20.27;13.07;;;;;;;25.72;18.68;99300.19;6919675;28;20254;-79
2022/03/28 10:47:47;;;;;;;19.93;13.90;;;;;;;24.93;19.59;99303.28;6903314;28;20593;-78
2022/03/28 10:51:10;;;;;;;20.33;13.43;;;;;;;25.32;18.58;99287.53;6921854;28;20238;-78
2022/03/28 10:54:38;;;;;;;17.50;13.10;;;;;;;26.29;17.44;99287.13;6916826;28;20297;-79
2022/03/28 10:58:08;;;;;;;20.17;14.10;;;;;;;25.87;17.64;99258.56;6924198;28;20236;-79
2022/03/28 11:01:32;;;;;;;17.67;12.30;;;;;;;26.89;17.04;99266.16;6897671;28;20397;-79
2022/03/28 11:04:55;;;;;;;16.37;12.77;;;;;;;25.18;18.59;99264.44;6890531;28;20684;-78
2022/03/28 11:08:30;;;;;;;19.27;12.87;;;;;;;25.64;18.58;99243.63;6897831;28;20234;-78
2022/03/28 11:11:56;;;;;;;14.87;11.93;;;;;;;26.67;16.60;99238.25;6890432;28;20276;-78
2022/03/28 11:15:19;;;;;;;17.77;13.50;;;;;;;26.77;16.83;99238.13;6907410;28;20607;-79
2022/03/28 11:18:41;;;;;;;18.57;12.60;;;;;;;27.66;15.81;99232.19;6919038;28;20233;-79
2022/03/28 11:22:09;;;;;;;17.70;13.07;;;;;;;27.00;17.15;99231.63;6916045;28;20249;-79
2022/03/28 11:25:39;;;;;;;23.00;14.33;;;;;;;26.36;17.45;99234.25;6917455;28;20198;-78
2022/03/28 11:29:06;;;;;;;17.17;12.10;;;;;;;27.05;17.12;99214.94;6916989;28;20263;-78
2022/03/28 11:32:31;;;;;;;15.07;12.03;;;;;;;27.22;17.02;99212.47;6917425;28;20225;-80
2022/03/28 11:35:55;;;;;;;20.07;12.80;;;;;;;27.53;16.33;99219.13;6916857;28;20209;-78
2022/03/28 11:39:21;;;;;;;17.77;12.13;;;;;;;27.46;16.43;99202.06;6916509;28;20289;-78
2022/03/28 11:42:49;;;;;;;16.97;12.20;;;;;;;27.84;16.42;99190.56;6916494;28;20204;-78
2022/03/28 11:46:13;;;;;;;17.43;11.87;;;;;;;26.49;17.25;99179.00;6916125;28;20197;-79
2022/03/28 11:49:36;;;;;;;14.53;11.27;;;;;;;26.33;18.06;99190.56;6916435;28;20728;-78
2022/03/28 11:52:58;;;;;;;16.07;12.63;;;;;;;26.47;17.35;99172.13;6917195;28;20211;-78
2022/03/28 11:56:26;;;;;;;15.57;12.20;;;;;;;26.73;17.67;99165.91;6915700;28;20229;-78
2022/03/28 11:59:48;;;;;;;24.67;14.07;;;;;;;26.40;17.50;99164.22;6915713;28;20264;-78
2022/03/28 12:03:10;;;;;;;20.27;13.50;;;;;;;27.05;16.80;99152.13;6915431;28;20212;-78
2022/03/28 12:06:34;;;;;;;18.73;13.27;;;;;;;26.54;17.91;99143.00;6911663;28;20653;-78
2022/03/28 12:09:56;;;;;;;17.63;13.00;;;;;;;27.39;17.04;99144.34;6915118;28;20380;-77
2022/03/28 12:13:19;;;;;;;17.37;13.37;;;;;;;27.06;16.98;99147.38;6914892;28;20223;-78
2022/03/28 12:16:48;;;;;;;19.03;12.67;;;;;;;27.01;17.58;99140.00;6915309;28;20216;-79
2022/03/28 12:20:13;;;;;;;19.87;12.93;;;;;;;27.77;16.54;99122.78;6932440;28;20234;-79
2022/03/28 12:23:37;;;;;;;21.57;13.43;;;;;;;27.34;17.52;99105.66;6931868;28;20218;-78
2022/03/28 12:27:00;;;;;;;15.80;12.37;;;;;;;26.89;17.60;99123.03;6915567;28;20342;-78
2022/03/28 12:30:28;;;;;;;18.90;13.43;;;;;;;27.26;17.03;99111.88;6916047;28;20214;-78
2022/03/28 12:33:51;;;;;;;18.40;13.77;;;;;;;26.92;18.18;99110.56;6915598;28;20209;-78
2022/03/28 12:37:15;;;;;;;18.33;12.93;;;;;;;27.38;17.57;99105.84;6915816;28;20663;-78
2022/03/28 12:40:36;;;;;;;18.37;12.30;;;;;;;27.47;17.47;99096.50;6915938;28;20421;-79
2022/03/28 12:43:59;;;;;;;20.03;13.20;;;;;;;27.88;17.46;99085.44;6916088;28;20251;-79
2022/03/28 12:47:26;;;;;;;18.73;13.77;;;;;;;28.09;16.70;99093.00;6913448;28;20229;-77
2022/03/28 12:50:57;;;;;;;20.83;13.53;;;;;;;28.16;16.86;99073.97;6915411;28;20232;-79
2022/03/28 12:54:20;;;;;;;19.73;12.80;;;;;;;26.87;18.03;99081.03;6915084;28;20190;-78
2022/03/28 12:57:51;;;;;;;22.07;15.17;;;;;;;26.62;18.03;99075.09;6941837;28;20310;-77
2022/03/28 13:01:13;;;;;;;17.97;14.07;;;;;;;26.10;19.30;99064.28;6916583;28;20300;-77
2022/03/28 13:04:44;;;;;;;19.03;13.80;;;;;;;26.04;19.54;99058.03;6914622;28;20695;-78
2022/03/28 13:08:10;;;;;;;21.33;13.60;;;;;;;25.80;19.82;99050.88;6917502;28;20701;-78
2022/03/28 13:11:33;;;;;;;24.90;14.83;;;;;;;25.32;19.47;99058.41;6936648;28;20209;-78
2022/03/28 13:14:55;;;;;;;22.83;14.87;;;;;;;26.09;19.19;99041.38;6915578;28;20307;-79
2022/03/28 13:18:21;;;;;;;17.83;13.43;;;;;;;25.99;18.98;99041.53;6917204;28;20306;-78
2022/03/28 13:21:44;;;;;;;19.53;13.73;;;;;;;25.49;19.76;99035.84;6909297;28;20866;-78
2022/03/28 13:25:10;;;;;;;23.30;14.40;;;;;;;26.00;19.60;99020.22;6885930;28;20205;-78
2022/03/28 13:28:33;;;;;;;21.77;14.30;;;;;;;26.14;18.70;99032.97;6886681;28;20248;-78
2022/03/28 13:31:56;;;;;;;18.30;14.03;;;;;;;26.03;19.44;99020.47;6904544;28;20338;-78
2022/03/28 13:35:18;;;;;;;20.90;14.10;;;;;;;26.47;18.36;99012.53;6914481;28;20270;-79
2022/03/28 13:38:41;;;;;;;18.13;12.57;;;;;;;26.51;18.58;99005.28;6913369;28;20224;-78
2022/03/28 13:42:04;;;;;;;19.70;14.37;;;;;;;26.26;18.71;99010.44;6913966;28;20264;-78
2022/03/28 13:45:26;;;;;;;17.60;12.27;;;;;;;26.64;18.47;99004.53;6914131;28;20210;-78
2022/03/28 13:48:50;;;;;;;18.50;12.00;;;;;;;26.53;18.65;98993.91;6912932;28;20234;-79
2022/03/28 13:52:12;;;;;;;18.47;12.07;;;;;;;26.46;18.53;98988.78;6914478;28;20209;-78
2022/03/28 13:55:35;;;;;;;14.83;11.07;;;;;;;27.26;17.95;98981.72;6901305;28;20205;-77
2022/03/28 13:58:57;;;;;;;19.13;12.33;;;;;;;26.86;18.25;98985.31;6913141;28;20602;-78
2022/03/28 14:02:19;;;;;;;20.77;13.23;;;;;;;26.86;18.11;98979.78;6913468;28;20268;-78
2022/03/28 14:05:41;;;;;;;18.90;11.70;;;;;;;26.72;18.79;98967.84;6913055;28;20216;-78
2022/03/28 14:09:03;;;;;;;22.53;13.27;;;;;;;26.99;19.16;98962.34;6913517;28;20311;-78
2022/03/28 14:12:26;;;;;;;16.43;11.70;;;;;;;26.67;19.00;98961.59;6913339;28;20757;-78
2022/03/28 14:15:48;;;;;;;17.10;11.53;;;;;;;26.20;19.85;98959.09;6912988;28;20303;-78
2022/03/28 14:19:11;;;;;;;15.87;11.63;;;;;;;26.56;19.07;98949.91;6913718;28;20229;-78
2022/03/28 14:22:34;;;;;;;17.70;11.27;;;;;;;26.61;18.64;98949.00;6910600;28;20288;-78
2022/03/28 14:25:58;;;;;;;16.43;9.93;;;;;;;26.18;17.69;98933.72;6913156;28;20762;-79
2022/03/28 14:29:21;;;;;;;16.40;9.53;;;;;;;26.86;17.74;98938.25;6913068;28;20228;-78
2022/03/28 14:32:43;;;;;;;12.57;9.70;;;;;;;27.09;16.52;98933.63;6886751;28;20204;-78
2022/03/28 14:36:05;;;;;;;11.57;8.77;;;;;;;25.42;16.48;98941.53;6885136;28;20208;-78
2022/03/28 14:39:26;;;;;;;11.53;8.77;;;;;;;25.61;16.38;98929.34;6885535;28;20234;-78
2022/03/28 14:42:48;;;;;;;12.80;8.97;;;;;;;25.29;16.29;98926.50;6886120;28;20275;-78
2022/03/28 14:49:51;;;;;;;14.63;8.87;;;;;;;26.25;16.66;98899.00;6885932;28;20640;-78
2022/03/28 14:53:12;;;;;;;14.97;9.80;;;;;;;26.12;16.99;98926.63;6885893;28;20211;-78
2022/03/28 14:56:34;;;;;;;15.77;9.77;;;;;;;26.15;17.13;98912.19;6885533;28;20358;-78
2022/03/28 14:59:55;;;;;;;12.83;8.97;;;;;;;25.65;17.00;98904.72;6887093;28;20237;-78
2022/03/28 15:03:18;;;;;;;15.60;9.33;;;;;;;26.04;16.39;98910.72;6907642;28;20209;-78
2022/03/28 15:06:40;;;;;;;12.50;8.40;;;;;;;26.28;15.96;98895.66;6920164;28;20212;-78
2022/03/28 15:10:02;;;;;;;10.70;8.73;;;;;;;26.34;15.99;98904.66;6938477;28;20227;-78
2022/03/28 15:13:23;;;;;;;20.40;9.60;;;;;;;26.17;16.06;98904.41;6944446;28;20211;-78
2022/03/28 15:16:45;;;;;;;12.70;9.03;;;;;;;25.92;16.45;98894.63;6944629;28;20217;-78
2022/03/28 15:20:09;;;;;;;11.50;8.53;;;;;;;26.09;15.36;98875.56;6944995;28;20231;-78
2022/03/28 15:23:30;;;;;;;13.93;8.57;;;;;;;25.53;16.15;98879.47;6943008;28;20219;-78
2022/03/28 15:26:55;;;;;;;15.83;9.70;;;;;;;25.48;16.44;98877.63;6943816;28;20193;-78
2022/03/28 15:30:17;;;;;;;12.27;9.13;;;;;;;25.66;16.71;98868.50;6944640;28;20224;-78
2022/03/28 15:33:38;;;;;;;12.80;9.37;;;;;;;24.97;16.64;98876.69;6944792;28;20265;-78
2022/03/28 15:37:03;;;;;;;10.87;8.93;;;;;;;25.16;17.28;98863.75;6943335;28;20206;-78
2022/03/28 15:40:24;;;;;;;14.23;9.07;;;;;;;25.19;16.76;98865.09;6944220;28;20236;-78
2022/03/28 15:43:46;;;;;;;14.80;9.30;;;;;;;25.01;16.43;98860.38;6944680;28;20345;-78
2022/03/28 15:47:08;;;;;;;12.47;8.23;;;;;;;24.93;16.22;98856.34;6921064;28;20211;-78
2022/03/28 15:50:29;;;;;;;11.70;8.43;;;;;;;25.24;15.63;98860.31;6916828;28;20203;-78
2022/03/28 15:53:53;;;;;;;10.93;8.27;;;;;;;25.04;16.38;98851.50;6912852;28;20726;-78
2022/03/28 15:57:15;;;;;;;11.53;7.97;;;;;;;24.85;16.13;98857.00;6928117;28;20244;-79
2022/03/28 16:00:36;;;;;;;9.50;7.67;;;;;;;24.93;16.27;98858.25;6937543;28;20684;-79
2022/03/28 16:03:59;;;;;;;11.73;8.57;;;;;;;24.71;16.27;98858.03;6939067;28;20339;-79
2022/03/28 16:07:21;;;;;;;14.37;8.07;;;;;;;24.95;15.72;98853.28;6916365;28;20703;-79
2022/03/28 16:10:44;;;;;;;13.70;8.00;;;;;;;25.32;15.49;98856.88;6916773;28;20302;-79